ADDS METAR Data INFO
IDs: Format: Raw Decoded Include TAF

Data at: 2039 UTC 22 Feb 2018

KCMX 221953Z AUTO 10007KT 10SM CLR M04/M12 A3052 RMK AO2 SLP360 T10441122
KCMX 221853Z AUTO 15007KT 10SM CLR M04/M13 A3055 RMK AO2 SLP370 T10441128
KCMX 221753Z AUTO 13007KT 10SM CLR M06/M14 A3058 RMK AO2 SLP380 T10611139 11061 21167 58018
KCMX 221653Z AUTO 13003KT 10SM CLR M08/M13 A3062 RMK AO2 SLP395 T10781128
KCMX 221553Z AUTO 15005KT 10SM CLR M09/M14 A3063 RMK AO2 SLP398 T10941139
KCMX 221453Z AUTO 00000KT 10SM CLR M13/M16 A3064 RMK AO2 SLP402 T11281161 51010
KCMX 221445Z AUTO 00000KT 10SM CLR M13/M17 A3064 RMK AO2 T11331167
KCMX 221431Z AUTO 27003KT 2 1/2SM HZ FEW001 M14/M17 A3064 RMK AO2 T11391167
KCMX 221353Z AUTO VRB04KT 10SM CLR M13/M16 A3063 RMK AO2 SLP401 T11281161
KCMX 221253Z AUTO 31006KT 10SM CLR M16/M19 A3062 RMK AO2 SLP398 T11561189
KCMX 221153Z AUTO 24003KT 10SM CLR M14/M18 A3061 RMK AO2 SLP393 T11441178 11100 21189 53001
KCMX 221053Z AUTO 30009KT 10SM CLR M17/M20 A3058 RMK AO2 SLP384 T11671200
KCMX 220953Z AUTO 30005KT 10SM CLR M17/M21 A3058 RMK AO2 SLP383 T11721206
KCMX 220853Z AUTO 00000KT 10SM CLR M15/M19 A3060 RMK AO2 SLP389 T11501194 50000
KCMX 220753Z AUTO 30005KT 10SM CLR M14/M18 A3061 RMK AO2 SLP393 T11441178
KCMX 220653Z AUTO 23003KT 10SM CLR M12/M17 A3062 RMK AO2 SLP393 T11221167
KCMX 220553Z AUTO 00000KT 10SM CLR M13/M17 A3060 RMK AO2 SLP388 T11281172 11106 21167 52009
KCMX 220453Z AUTO 26003KT 10SM CLR M13/M17 A3059 RMK AO2 SLP385 T11331167 410781167
KCMX 220353Z AUTO 00000KT 10SM CLR M12/M17 A3059 RMK AO2 SLP384 T11221172
KCMX 212353Z AUTO 29005KT 10SM CLR M13/M17 A3054 RMK AO2 SLP368 T11331172 11078 21144 53008
KCMX 212253Z AUTO 26007KT 10SM CLR M08/M16 A3052 RMK AO2 SLP358 T10831161
KCMX 212153Z AUTO 26013KT 10SM CLR M08/M16 A3053 RMK AO2 SLP363 T10781161
KCMX 212053Z AUTO 27013KT 10SM CLR M08/M16 A3052 RMK AO2 SLP356 T10781156 53011
KCMX 211953Z AUTO 26014KT 10SM CLR M08/M17 A3048 RMK AO2 SLP346 T10781167
KCMX 211902Z AUTO 27011KT 10SM SCT018 M09/M15 A3048 RMK AO2 T10941150
KCMX 211853Z AUTO 28012KT 10SM BKN018 M09/M15 A3048 RMK AO2 SLP346 T10941150
KCMX 211753Z AUTO 27010KT 10SM BKN019 M09/M14 A3048 RMK AO2 SNE1658 SLP346 P0000 60000 T10891139 11089 21111 53024
KCMX 211705Z AUTO 27014KT 10SM OVC015 M09/M14 A3045 RMK AO2 SNE1658 P0000 T10941139
KCMX 211653Z AUTO 25011KT 6SM -SN OVC014 M09/M14 A3044 RMK AO2 SLP332 P0000 T10941139
KCMX 211631Z AUTO 26009KT 3SM -SN BKN013 BKN020 OVC027 M10/M14 A3043 RMK AO2 P0000 T11001139
KCMX 211553Z AUTO 25012KT 3SM -SN SCT016 OVC026 M10/M14 A3041 RMK AO2 SLP323 P0000 T11001144
KCMX 211519Z AUTO 27015KT 3SM -SN SCT013 OVC027 M11/M14 A3041 RMK AO2 P0000 T11061144
KCMX 211510Z AUTO 26016G21KT 3SM -SN BKN013 OVC028 M11/M14 A3041 RMK AO2 P0000 T11061144
KCMX 211502Z AUTO 26014KT 2 1/2SM -SN BKN012 OVC028 M11/M14 A3041 RMK AO2 P0000 T11061144
KCMX 211453Z AUTO 26013KT 3SM -SN BKN012 OVC028 M11/M14 A3041 RMK AO2 SLP321 P0000 60000 T11061144 53025
KCMX 211437Z AUTO 26014KT 3SM -SN OVC029 M11/M14 A3040 RMK AO2 P0000 T11061144
KCMX 211427Z AUTO 25012KT 3SM -SN OVC030 M11/M14 A3040 RMK AO2 P0000 T11111144
KCMX 211414Z AUTO 26014KT 3SM -SN FEW015 OVC029 M11/M14 A3039 RMK AO2 P0000 T11111144
KCMX 211353Z AUTO 26013KT 1 1/2SM -SN FEW014 OVC027 M11/M14 A3039 RMK AO2 SLP313 P0000 T11061144
KCMX 211333Z AUTO 26014G23KT 1 1/4SM -SN FEW014 OVC025 M11/M14 A3038 RMK AO2 P0000 T11061144
KCMX 211321Z AUTO 26012KT 2SM -SN SCT013 OVC026 M11/M14 A3036 RMK AO2 PRESRR P0000 T11061139
KCMX 211304Z AUTO 26014G21KT 1 1/4SM -SN BKN013 OVC026 M10/M14 A3035 RMK AO2 P0000 T11001139
KCMX 211257Z AUTO 27016G24KT 2SM -SN BKN013 OVC026 M10/M14 A3034 RMK AO2 P0000 T11001139
KCMX 211253Z AUTO 26017KT 3SM -SN SCT013 OVC026 M10/M14 A3033 RMK AO2 SLP295 P0000 T11001139
KCMX 211251Z AUTO 26016KT 3SM -SN SCT013 OVC026 M10/M14 A3033 RMK AO2 P0000